sensor_id;sensor_type;location;lat;lon;timestamp;P1;durP1;ratioP1;P2;durP2;ratioP2
81457;SDS011;70882;52.500;5.500;2023-07-16T00:00:51;8.23;;;2.20;;
81457;SDS011;70882;52.500;5.500;2023-07-16T00:03:16;5.50;;;2.65;;
81457;SDS011;70882;52.500;5.500;2023-07-16T00:05:42;12.07;;;1.85;;
81457;SDS011;70882;52.500;5.500;2023-07-16T00:08:07;12.60;;;2.05;;
81457;SDS011;70882;52.500;5.500;2023-07-16T00:10:36;7.43;;;1.80;;
81457;SDS011;70882;52.500;5.500;2023-07-16T00:13:05;12.60;;;1.95;;
81457;SDS011;70882;52.500;5.500;2023-07-16T00:15:30;5.75;;;1.65;;
81457;SDS011;70882;52.500;5.500;2023-07-16T00:17:56;8.02;;;1.92;;
81457;SDS011;70882;52.500;5.500;2023-07-16T00:20:21;9.80;;;1.83;;
81457;SDS011;70882;52.500;5.500;2023-07-16T00:22:48;9.43;;;1.50;;
81457;SDS011;70882;52.500;5.500;2023-07-16T00:25:14;5.45;;;1.52;;
81457;SDS011;70882;52.500;5.500;2023-07-16T00:27:39;5.95;;;1.45;;
81457;SDS011;70882;52.500;5.500;2023-07-16T00:30:04;7.70;;;1.63;;
81457;SDS011;70882;52.500;5.500;2023-07-16T00:32:30;2.80;;;1.20;;
81457;SDS011;70882;52.500;5.500;2023-07-16T00:34:56;9.20;;;1.98;;
81457;SDS011;70882;52.500;5.500;2023-07-16T00:37:21;7.40;;;1.60;;
81457;SDS011;70882;52.500;5.500;2023-07-16T00:39:46;7.03;;;1.60;;
81457;SDS011;70882;52.500;5.500;2023-07-16T00:42:12;6.22;;;2.03;;
81457;SDS011;70882;52.500;5.500;2023-07-16T00:44:37;4.18;;;1.65;;
81457;SDS011;70882;52.500;5.500;2023-07-16T00:47:03;5.82;;;1.88;;
81457;SDS011;70882;52.500;5.500;2023-07-16T00:49:28;5.55;;;1.77;;
81457;SDS011;70882;52.500;5.500;2023-07-16T00:51:54;4.88;;;2.03;;
81457;SDS011;70882;52.500;5.500;2023-07-16T00:54:20;9.02;;;1.65;;
81457;SDS011;70882;52.500;5.500;2023-07-16T00:56:45;6.68;;;1.95;;
81457;SDS011;70882;52.500;5.500;2023-07-16T00:59:10;5.85;;;1.90;;
81457;SDS011;70882;52.500;5.500;2023-07-16T01:01:37;6.22;;;2.50;;
81457;SDS011;70882;52.500;5.500;2023-07-16T01:04:03;6.25;;;1.85;;
81457;SDS011;70882;52.500;5.500;2023-07-16T01:06:34;7.38;;;2.30;;
81457;SDS011;70882;52.500;5.500;2023-07-16T01:09:08;5.47;;;2.08;;
81457;SDS011;70882;52.500;5.500;2023-07-16T01:11:36;7.55;;;2.58;;
81457;SDS011;70882;52.500;5.500;2023-07-16T01:14:02;6.07;;;2.13;;
81457;SDS011;70882;52.500;5.500;2023-07-16T01:16:28;6.82;;;2.38;;
81457;SDS011;70882;52.500;5.500;2023-07-16T01:18:54;6.88;;;2.05;;
81457;SDS011;70882;52.500;5.500;2023-07-16T01:21:20;9.93;;;2.03;;
81457;SDS011;70882;52.500;5.500;2023-07-16T01:29:31;7.35;;;2.55;;
81457;SDS011;70882;52.500;5.500;2023-07-16T01:32:00;8.85;;;3.00;;
81457;SDS011;70882;52.500;5.500;2023-07-16T01:34:27;5.25;;;2.22;;
81457;SDS011;70882;52.500;5.500;2023-07-16T01:36:53;6.60;;;2.20;;
81457;SDS011;70882;52.500;5.500;2023-07-16T01:39:19;7.13;;;2.47;;
81457;SDS011;70882;52.500;5.500;2023-07-16T01:41:44;6.82;;;2.67;;
81457;SDS011;70882;52.500;5.500;2023-07-16T01:44:10;5.50;;;2.20;;
81457;SDS011;70882;52.500;5.500;2023-07-16T01:46:35;7.35;;;2.33;;
81457;SDS011;70882;52.500;5.500;2023-07-16T01:49:01;9.55;;;2.67;;
81457;SDS011;70882;52.500;5.500;2023-07-16T01:51:26;10.52;;;3.03;;
81457;SDS011;70882;52.500;5.500;2023-07-16T01:53:51;11.75;;;3.05;;
81457;SDS011;70882;52.500;5.500;2023-07-16T01:56:17;10.45;;;2.45;;
81457;SDS011;70882;52.500;5.500;2023-07-16T01:58:42;9.20;;;2.53;;
81457;SDS011;70882;52.500;5.500;2023-07-16T02:01:08;9.32;;;2.55;;
81457;SDS011;70882;52.500;5.500;2023-07-16T02:03:33;8.07;;;2.63;;
81457;SDS011;70882;52.500;5.500;2023-07-16T02:05:59;9.82;;;3.15;;
81457;SDS011;70882;52.500;5.500;2023-07-16T02:08:25;7.47;;;2.40;;
81457;SDS011;70882;52.500;5.500;2023-07-16T02:10:50;9.07;;;3.10;;
81457;SDS011;70882;52.500;5.500;2023-07-16T02:13:15;8.80;;;2.65;;
81457;SDS011;70882;52.500;5.500;2023-07-16T02:15:42;6.28;;;2.60;;
81457;SDS011;70882;52.500;5.500;2023-07-16T02:18:08;10.63;;;2.70;;
81457;SDS011;70882;52.500;5.500;2023-07-16T02:20:33;7.78;;;2.78;;
81457;SDS011;70882;52.500;5.500;2023-07-16T02:22:59;7.80;;;3.72;;
81457;SDS011;70882;52.500;5.500;2023-07-16T02:25:24;8.85;;;3.00;;
81457;SDS011;70882;52.500;5.500;2023-07-16T02:27:50;8.00;;;2.88;;
81457;SDS011;70882;52.500;5.500;2023-07-16T02:30:16;10.50;;;2.92;;
81457;SDS011;70882;52.500;5.500;2023-07-16T02:32:42;9.32;;;2.85;;
81457;SDS011;70882;52.500;5.500;2023-07-16T02:35:07;9.90;;;3.10;;
81457;SDS011;70882;52.500;5.500;2023-07-16T02:37:35;11.23;;;3.60;;
81457;SDS011;70882;52.500;5.500;2023-07-16T02:40:00;7.65;;;2.83;;
81457;SDS011;70882;52.500;5.500;2023-07-16T02:42:26;7.82;;;3.08;;
81457;SDS011;70882;52.500;5.500;2023-07-16T02:44:52;6.93;;;2.90;;
81457;SDS011;70882;52.500;5.500;2023-07-16T02:47:17;9.68;;;2.97;;
81457;SDS011;70882;52.500;5.500;2023-07-16T02:49:43;11.90;;;2.97;;
81457;SDS011;70882;52.500;5.500;2023-07-16T02:52:08;7.45;;;3.30;;
81457;SDS011;70882;52.500;5.500;2023-07-16T02:54:35;10.20;;;3.28;;
81457;SDS011;70882;52.500;5.500;2023-07-16T02:57:01;13.30;;;3.90;;
81457;SDS011;70882;52.500;5.500;2023-07-16T02:59:26;9.40;;;3.80;;
81457;SDS011;70882;52.500;5.500;2023-07-16T03:01:51;11.90;;;3.55;;
81457;SDS011;70882;52.500;5.500;2023-07-16T03:04:17;8.85;;;3.42;;
81457;SDS011;70882;52.500;5.500;2023-07-16T03:06:42;7.35;;;3.55;;
81457;SDS011;70882;52.500;5.500;2023-07-16T03:09:08;9.27;;;3.67;;
81457;SDS011;70882;52.500;5.500;2023-07-16T03:11:33;10.75;;;3.67;;
81457;SDS011;70882;52.500;5.500;2023-07-16T03:13:58;12.80;;;4.13;;
81457;SDS011;70882;52.500;5.500;2023-07-16T03:16:24;9.48;;;3.60;;
81457;SDS011;70882;52.500;5.500;2023-07-16T03:18:49;9.07;;;3.50;;
81457;SDS011;70882;52.500;5.500;2023-07-16T03:21:15;12.40;;;3.90;;
81457;SDS011;70882;52.500;5.500;2023-07-16T03:23:40;12.18;;;3.75;;
81457;SDS011;70882;52.500;5.500;2023-07-16T03:26:06;8.90;;;3.33;;
81457;SDS011;70882;52.500;5.500;2023-07-16T03:28:31;13.15;;;3.75;;
81457;SDS011;70882;52.500;5.500;2023-07-16T03:30:56;11.13;;;3.92;;
81457;SDS011;70882;52.500;5.500;2023-07-16T03:33:22;10.25;;;3.72;;
81457;SDS011;70882;52.500;5.500;2023-07-16T03:35:48;11.52;;;3.65;;
81457;SDS011;70882;52.500;5.500;2023-07-16T03:38:13;12.50;;;3.78;;
81457;SDS011;70882;52.500;5.500;2023-07-16T03:40:39;13.50;;;3.63;;
81457;SDS011;70882;52.500;5.500;2023-07-16T03:43:06;8.57;;;3.35;;
81457;SDS011;70882;52.500;5.500;2023-07-16T03:45:33;13.27;;;4.25;;
81457;SDS011;70882;52.500;5.500;2023-07-16T03:47:58;13.13;;;4.22;;
81457;SDS011;70882;52.500;5.500;2023-07-16T03:50:23;15.25;;;3.78;;
81457;SDS011;70882;52.500;5.500;2023-07-16T03:52:49;11.55;;;4.13;;
81457;SDS011;70882;52.500;5.500;2023-07-16T03:55:14;12.90;;;3.70;;
81457;SDS011;70882;52.500;5.500;2023-07-16T03:57:40;8.35;;;3.70;;
81457;SDS011;70882;52.500;5.500;2023-07-16T04:00:06;11.48;;;4.28;;
81457;SDS011;70882;52.500;5.500;2023-07-16T04:02:34;10.45;;;3.20;;
81457;SDS011;70882;52.500;5.500;2023-07-16T04:04:59;11.05;;;3.58;;
81457;SDS011;70882;52.500;5.500;2023-07-16T04:07:24;8.40;;;3.58;;
81457;SDS011;70882;52.500;5.500;2023-07-16T04:09:50;9.57;;;3.28;;
81457;SDS011;70882;52.500;5.500;2023-07-16T04:12:16;8.10;;;3.20;;
81457;SDS011;70882;52.500;5.500;2023-07-16T04:14:41;10.32;;;3.72;;
81457;SDS011;70882;52.500;5.500;2023-07-16T04:17:07;9.95;;;3.38;;
81457;SDS011;70882;52.500;5.500;2023-07-16T04:19:32;11.95;;;3.45;;
81457;SDS011;70882;52.500;5.500;2023-07-16T04:21:58;10.45;;;2.92;;
81457;SDS011;70882;52.500;5.500;2023-07-16T04:24:23;8.35;;;3.25;;
81457;SDS011;70882;52.500;5.500;2023-07-16T04:26:49;9.55;;;3.10;;
81457;SDS011;70882;52.500;5.500;2023-07-16T04:29:14;8.60;;;3.10;;
81457;SDS011;70882;52.500;5.500;2023-07-16T04:31:40;13.77;;;3.58;;
81457;SDS011;70882;52.500;5.500;2023-07-16T04:34:06;14.02;;;3.33;;
81457;SDS011;70882;52.500;5.500;2023-07-16T04:36:31;17.17;;;4.45;;
81457;SDS011;70882;52.500;5.500;2023-07-16T04:38:56;8.55;;;2.85;;
81457;SDS011;70882;52.500;5.500;2023-07-16T04:41:22;10.38;;;3.00;;
81457;SDS011;70882;52.500;5.500;2023-07-16T04:43:47;9.75;;;3.03;;
81457;SDS011;70882;52.500;5.500;2023-07-16T04:46:13;9.55;;;3.03;;
81457;SDS011;70882;52.500;5.500;2023-07-16T04:48:38;9.07;;;3.45;;
81457;SDS011;70882;52.500;5.500;2023-07-16T04:51:03;8.88;;;3.15;;
81457;SDS011;70882;52.500;5.500;2023-07-16T04:53:28;12.35;;;3.10;;
81457;SDS011;70882;52.500;5.500;2023-07-16T04:55:54;10.20;;;3.17;;
81457;SDS011;70882;52.500;5.500;2023-07-16T04:58:19;9.70;;;3.67;;
81457;SDS011;70882;52.500;5.500;2023-07-16T05:00:44;8.80;;;3.03;;
81457;SDS011;70882;52.500;5.500;2023-07-16T05:03:11;9.25;;;3.28;;
81457;SDS011;70882;52.500;5.500;2023-07-16T05:05:36;9.50;;;3.50;;
81457;SDS011;70882;52.500;5.500;2023-07-16T05:08:02;11.52;;;3.63;;
81457;SDS011;70882;52.500;5.500;2023-07-16T05:10:28;8.65;;;3.90;;
81457;SDS011;70882;52.500;5.500;2023-07-16T05:12:53;7.97;;;3.65;;
81457;SDS011;70882;52.500;5.500;2023-07-16T05:15:19;7.43;;;3.22;;
81457;SDS011;70882;52.500;5.500;2023-07-16T05:17:44;10.13;;;3.50;;
81457;SDS011;70882;52.500;5.500;2023-07-16T05:20:12;8.88;;;3.72;;
81457;SDS011;70882;52.500;5.500;2023-07-16T05:22:37;9.77;;;3.10;;
81457;SDS011;70882;52.500;5.500;2023-07-16T05:25:02;7.75;;;3.45;;
81457;SDS011;70882;52.500;5.500;2023-07-16T05:27:28;12.38;;;3.40;;
81457;SDS011;70882;52.500;5.500;2023-07-16T05:29:53;10.00;;;4.20;;
81457;SDS011;70882;52.500;5.500;2023-07-16T05:32:19;13.25;;;3.95;;
81457;SDS011;70882;52.500;5.500;2023-07-16T05:34:44;5.30;;;2.90;;
81457;SDS011;70882;52.500;5.500;2023-07-16T05:37:10;8.73;;;3.50;;
81457;SDS011;70882;52.500;5.500;2023-07-16T05:39:36;9.55;;;3.63;;
81457;SDS011;70882;52.500;5.500;2023-07-16T05:42:02;9.43;;;3.33;;
81457;SDS011;70882;52.500;5.500;2023-07-16T05:44:28;7.68;;;3.25;;
81457;SDS011;70882;52.500;5.500;2023-07-16T05:46:53;9.75;;;4.40;;
81457;SDS011;70882;52.500;5.500;2023-07-16T05:49:19;10.95;;;4.05;;
81457;SDS011;70882;52.500;5.500;2023-07-16T05:51:44;7.22;;;3.60;;
81457;SDS011;70882;52.500;5.500;2023-07-16T05:54:10;8.32;;;4.03;;
81457;SDS011;70882;52.500;5.500;2023-07-16T05:56:35;9.88;;;3.85;;
81457;SDS011;70882;52.500;5.500;2023-07-16T05:59:00;9.55;;;3.65;;
81457;SDS011;70882;52.500;5.500;2023-07-16T06:01:26;10.23;;;3.70;;
81457;SDS011;70882;52.500;5.500;2023-07-16T06:03:51;9.30;;;3.78;;
81457;SDS011;70882;52.500;5.500;2023-07-16T06:06:16;7.88;;;3.65;;
81457;SDS011;70882;52.500;5.500;2023-07-16T06:08:41;8.88;;;4.15;;
81457;SDS011;70882;52.500;5.500;2023-07-16T06:11:07;8.05;;;3.40;;
81457;SDS011;70882;52.500;5.500;2023-07-16T06:13:32;8.40;;;3.15;;
81457;SDS011;70882;52.500;5.500;2023-07-16T06:15:57;7.75;;;3.78;;
81457;SDS011;70882;52.500;5.500;2023-07-16T06:18:23;8.30;;;3.63;;
81457;SDS011;70882;52.500;5.500;2023-07-16T06:20:48;6.55;;;3.35;;
81457;SDS011;70882;52.500;5.500;2023-07-16T06:23:15;12.18;;;4.20;;
81457;SDS011;70882;52.500;5.500;2023-07-16T06:25:41;9.18;;;4.30;;
81457;SDS011;70882;52.500;5.500;2023-07-16T06:28:11;15.52;;;5.22;;
81457;SDS011;70882;52.500;5.500;2023-07-16T06:30:37;7.57;;;3.72;;
81457;SDS011;70882;52.500;5.500;2023-07-16T06:33:02;10.48;;;4.18;;
81457;SDS011;70882;52.500;5.500;2023-07-16T06:35:27;7.60;;;3.30;;
81457;SDS011;70882;52.500;5.500;2023-07-16T06:37:53;10.35;;;3.95;;
81457;SDS011;70882;52.500;5.500;2023-07-16T06:40:18;8.45;;;4.28;;
81457;SDS011;70882;52.500;5.500;2023-07-16T06:42:44;9.07;;;3.75;;
81457;SDS011;70882;52.500;5.500;2023-07-16T06:45:10;8.65;;;4.05;;
81457;SDS011;70882;52.500;5.500;2023-07-16T06:47:35;13.35;;;4.28;;
81457;SDS011;70882;52.500;5.500;2023-07-16T06:50:01;9.40;;;3.47;;
81457;SDS011;70882;52.500;5.500;2023-07-16T06:52:26;13.40;;;4.43;;
81457;SDS011;70882;52.500;5.500;2023-07-16T06:54:55;8.20;;;3.08;;
81457;SDS011;70882;52.500;5.500;2023-07-16T06:57:21;8.50;;;4.03;;
81457;SDS011;70882;52.500;5.500;2023-07-16T06:59:47;9.18;;;3.50;;
81457;SDS011;70882;52.500;5.500;2023-07-16T07:02:12;10.98;;;3.72;;
81457;SDS011;70882;52.500;5.500;2023-07-16T07:04:37;10.57;;;3.90;;
81457;SDS011;70882;52.500;5.500;2023-07-16T07:07:03;9.45;;;3.65;;
81457;SDS011;70882;52.500;5.500;2023-07-16T07:09:29;8.82;;;4.00;;
81457;SDS011;70882;52.500;5.500;2023-07-16T07:11:54;10.25;;;4.00;;
81457;SDS011;70882;52.500;5.500;2023-07-16T07:14:19;9.13;;;4.05;;
81457;SDS011;70882;52.500;5.500;2023-07-16T07:16:45;11.10;;;3.67;;
81457;SDS011;70882;52.500;5.500;2023-07-16T07:19:10;13.25;;;4.10;;
81457;SDS011;70882;52.500;5.500;2023-07-16T07:21:35;16.33;;;4.53;;
81457;SDS011;70882;52.500;5.500;2023-07-16T07:24:01;10.23;;;4.65;;
81457;SDS011;70882;52.500;5.500;2023-07-16T07:26:26;9.32;;;3.97;;
81457;SDS011;70882;52.500;5.500;2023-07-16T07:28:52;8.50;;;3.90;;
81457;SDS011;70882;52.500;5.500;2023-07-16T07:31:18;13.40;;;5.10;;
81457;SDS011;70882;52.500;5.500;2023-07-16T07:33:43;15.38;;;4.72;;
81457;SDS011;70882;52.500;5.500;2023-07-16T07:36:08;14.27;;;4.60;;
81457;SDS011;70882;52.500;5.500;2023-07-16T07:38:34;13.05;;;5.53;;
81457;SDS011;70882;52.500;5.500;2023-07-16T07:40:59;9.45;;;3.60;;
81457;SDS011;70882;52.500;5.500;2023-07-16T07:43:24;10.90;;;4.82;;
81457;SDS011;70882;52.500;5.500;2023-07-16T07:45:50;8.73;;;3.90;;
81457;SDS011;70882;52.500;5.500;2023-07-16T07:48:15;9.63;;;4.20;;
81457;SDS011;70882;52.500;5.500;2023-07-16T07:50:40;8.80;;;4.35;;
81457;SDS011;70882;52.500;5.500;2023-07-16T07:53:06;11.27;;;3.90;;
81457;SDS011;70882;52.500;5.500;2023-07-16T07:55:31;11.25;;;4.35;;
81457;SDS011;70882;52.500;5.500;2023-07-16T07:57:56;9.23;;;4.03;;
81457;SDS011;70882;52.500;5.500;2023-07-16T08:00:22;11.20;;;4.40;;
81457;SDS011;70882;52.500;5.500;2023-07-16T08:02:47;13.48;;;3.97;;
81457;SDS011;70882;52.500;5.500;2023-07-16T08:05:12;13.82;;;3.78;;
81457;SDS011;70882;52.500;5.500;2023-07-16T08:07:38;10.52;;;3.70;;
81457;SDS011;70882;52.500;5.500;2023-07-16T08:10:03;9.63;;;3.92;;
81457;SDS011;70882;52.500;5.500;2023-07-16T08:12:29;7.40;;;3.75;;
81457;SDS011;70882;52.500;5.500;2023-07-16T08:14:55;12.43;;;4.10;;
81457;SDS011;70882;52.500;5.500;2023-07-16T08:17:21;8.55;;;3.67;;
81457;SDS011;70882;52.500;5.500;2023-07-16T08:19:46;11.60;;;3.90;;
81457;SDS011;70882;52.500;5.500;2023-07-16T08:22:11;10.63;;;4.15;;
81457;SDS011;70882;52.500;5.500;2023-07-16T08:24:37;8.93;;;3.67;;
81457;SDS011;70882;52.500;5.500;2023-07-16T08:27:02;9.40;;;4.13;;
81457;SDS011;70882;52.500;5.500;2023-07-16T08:29:28;5.43;;;3.25;;
81457;SDS011;70882;52.500;5.500;2023-07-16T08:31:53;10.38;;;4.68;;
81457;SDS011;70882;52.500;5.500;2023-07-16T08:34:18;8.45;;;3.90;;
81457;SDS011;70882;52.500;5.500;2023-07-16T08:36:44;12.40;;;4.22;;
81457;SDS011;70882;52.500;5.500;2023-07-16T08:39:09;10.32;;;4.00;;
81457;SDS011;70882;52.500;5.500;2023-07-16T08:41:35;13.18;;;4.45;;
81457;SDS011;70882;52.500;5.500;2023-07-16T08:44:00;12.77;;;4.60;;
81457;SDS011;70882;52.500;5.500;2023-07-16T08:46:26;12.68;;;4.47;;
81457;SDS011;70882;52.500;5.500;2023-07-16T08:48:51;11.05;;;4.50;;
81457;SDS011;70882;52.500;5.500;2023-07-16T08:51:17;8.30;;;4.32;;
81457;SDS011;70882;52.500;5.500;2023-07-16T08:53:42;10.65;;;4.10;;
81457;SDS011;70882;52.500;5.500;2023-07-16T08:56:08;8.35;;;3.85;;
81457;SDS011;70882;52.500;5.500;2023-07-16T08:58:34;9.60;;;4.53;;
81457;SDS011;70882;52.500;5.500;2023-07-16T09:01:05;11.07;;;4.38;;
81457;SDS011;70882;52.500;5.500;2023-07-16T09:03:30;10.95;;;4.13;;
81457;SDS011;70882;52.500;5.500;2023-07-16T09:05:56;10.60;;;4.30;;
81457;SDS011;70882;52.500;5.500;2023-07-16T09:08:21;10.05;;;3.83;;
81457;SDS011;70882;52.500;5.500;2023-07-16T09:10:56;8.43;;;3.67;;
81457;SDS011;70882;52.500;5.500;2023-07-16T09:13:22;10.70;;;4.60;;
81457;SDS011;70882;52.500;5.500;2023-07-16T09:15:52;9.93;;;4.32;;
81457;SDS011;70882;52.500;5.500;2023-07-16T09:18:25;8.90;;;4.32;;
81457;SDS011;70882;52.500;5.500;2023-07-16T09:20:55;10.73;;;4.05;;
81457;SDS011;70882;52.500;5.500;2023-07-16T09:23:23;10.45;;;4.55;;
81457;SDS011;70882;52.500;5.500;2023-07-16T09:25:53;11.70;;;4.03;;
81457;SDS011;70882;52.500;5.500;2023-07-16T09:28:19;9.02;;;3.90;;
81457;SDS011;70882;52.500;5.500;2023-07-16T09:30:45;9.10;;;3.65;;
81457;SDS011;70882;52.500;5.500;2023-07-16T09:33:13;10.15;;;3.88;;
81457;SDS011;70882;52.500;5.500;2023-07-16T09:35:39;7.30;;;3.45;;
81457;SDS011;70882;52.500;5.500;2023-07-16T09:38:05;7.22;;;3.67;;
81457;SDS011;70882;52.500;5.500;2023-07-16T09:40:31;9.60;;;4.20;;
81457;SDS011;70882;52.500;5.500;2023-07-16T09:42:57;10.70;;;3.90;;
81457;SDS011;70882;52.500;5.500;2023-07-16T09:45:23;6.20;;;3.13;;
81457;SDS011;70882;52.500;5.500;2023-07-16T09:47:49;8.90;;;4.20;;
81457;SDS011;70882;52.500;5.500;2023-07-16T09:50:14;9.50;;;3.97;;
81457;SDS011;70882;52.500;5.500;2023-07-16T09:52:40;9.25;;;3.80;;
81457;SDS011;70882;52.500;5.500;2023-07-16T09:55:08;12.48;;;4.00;;
81457;SDS011;70882;52.500;5.500;2023-07-16T09:57:34;9.90;;;4.03;;
81457;SDS011;70882;52.500;5.500;2023-07-16T10:00:02;5.70;;;3.45;;
81457;SDS011;70882;52.500;5.500;2023-07-16T10:02:32;9.45;;;4.32;;
81457;SDS011;70882;52.500;5.500;2023-07-16T10:04:59;6.97;;;3.80;;
81457;SDS011;70882;52.500;5.500;2023-07-16T10:07:24;12.02;;;4.50;;
81457;SDS011;70882;52.500;5.500;2023-07-16T10:09:52;8.30;;;3.70;;
81457;SDS011;70882;52.500;5.500;2023-07-16T10:12:19;7.70;;;3.60;;
81457;SDS011;70882;52.500;5.500;2023-07-16T10:14:50;7.22;;;3.75;;
81457;SDS011;70882;52.500;5.500;2023-07-16T10:22:45;11.05;;;4.40;;
81457;SDS011;70882;52.500;5.500;2023-07-16T10:27:43;10.30;;;4.50;;
81457;SDS011;70882;52.500;5.500;2023-07-16T10:30:09;6.45;;;3.45;;
81457;SDS011;70882;52.500;5.500;2023-07-16T10:32:35;9.23;;;3.80;;
81457;SDS011;70882;52.500;5.500;2023-07-16T10:35:00;9.18;;;3.92;;
81457;SDS011;70882;52.500;5.500;2023-07-16T10:37:27;11.73;;;3.53;;
81457;SDS011;70882;52.500;5.500;2023-07-16T10:39:53;8.38;;;4.03;;
81457;SDS011;70882;52.500;5.500;2023-07-16T10:42:20;7.72;;;3.38;;
81457;SDS011;70882;52.500;5.500;2023-07-16T10:44:49;10.35;;;4.50;;
81457;SDS011;70882;52.500;5.500;2023-07-16T10:47:22;8.07;;;3.83;;
81457;SDS011;70882;52.500;5.500;2023-07-16T10:49:49;7.63;;;3.80;;
81457;SDS011;70882;52.500;5.500;2023-07-16T10:52:17;10.77;;;3.85;;
81457;SDS011;70882;52.500;5.500;2023-07-16T10:54:42;8.35;;;3.50;;
81457;SDS011;70882;52.500;5.500;2023-07-16T10:57:08;12.13;;;4.25;;
81457;SDS011;70882;52.500;5.500;2023-07-16T10:59:36;7.05;;;3.45;;
81457;SDS011;70882;52.500;5.500;2023-07-16T11:02:02;8.50;;;3.67;;
81457;SDS011;70882;52.500;5.500;2023-07-16T11:04:32;6.32;;;3.28;;
81457;SDS011;70882;52.500;5.500;2023-07-16T11:06:58;7.28;;;3.17;;
81457;SDS011;70882;52.500;5.500;2023-07-16T11:09:23;8.77;;;3.63;;
81457;SDS011;70882;52.500;5.500;2023-07-16T11:11:49;8.07;;;3.20;;
81457;SDS011;70882;52.500;5.500;2023-07-16T11:14:14;7.93;;;3.13;;
81457;SDS011;70882;52.500;5.500;2023-07-16T11:16:39;10.32;;;3.58;;
81457;SDS011;70882;52.500;5.500;2023-07-16T11:19:05;6.68;;;3.33;;
81457;SDS011;70882;52.500;5.500;2023-07-16T11:21:31;11.32;;;3.53;;
81457;SDS011;70882;52.500;5.500;2023-07-16T11:26:53;7.55;;;3.15;;
81457;SDS011;70882;52.500;5.500;2023-07-16T11:29:20;6.82;;;3.28;;
81457;SDS011;70882;52.500;5.500;2023-07-16T11:31:48;9.40;;;4.10;;
81457;SDS011;70882;52.500;5.500;2023-07-16T11:34:14;9.43;;;3.88;;
81457;SDS011;70882;52.500;5.500;2023-07-16T11:36:40;8.75;;;4.07;;
81457;SDS011;70882;52.500;5.500;2023-07-16T11:39:06;6.53;;;3.20;;
81457;SDS011;70882;52.500;5.500;2023-07-16T11:41:31;6.40;;;3.50;;
81457;SDS011;70882;52.500;5.500;2023-07-16T11:44:00;6.50;;;3.05;;
81457;SDS011;70882;52.500;5.500;2023-07-16T11:46:30;5.45;;;2.75;;
81457;SDS011;70882;52.500;5.500;2023-07-16T11:48:57;8.75;;;3.65;;
81457;SDS011;70882;52.500;5.500;2023-07-16T11:51:22;7.15;;;3.13;;
81457;SDS011;70882;52.500;5.500;2023-07-16T11:53:48;10.13;;;3.47;;
81457;SDS011;70882;52.500;5.500;2023-07-16T11:56:13;8.25;;;3.00;;
81457;SDS011;70882;52.500;5.500;2023-07-16T11:58:38;6.75;;;2.88;;
81457;SDS011;70882;52.500;5.500;2023-07-16T12:01:04;7.78;;;3.00;;
81457;SDS011;70882;52.500;5.500;2023-07-16T12:03:29;6.18;;;3.10;;
81457;SDS011;70882;52.500;5.500;2023-07-16T12:05:54;7.97;;;2.95;;
81457;SDS011;70882;52.500;5.500;2023-07-16T12:08:20;4.97;;;2.75;;
81457;SDS011;70882;52.500;5.500;2023-07-16T12:10:45;8.27;;;2.95;;
81457;SDS011;70882;52.500;5.500;2023-07-16T12:13:11;8.20;;;3.08;;
81457;SDS011;70882;52.500;5.500;2023-07-16T12:15:36;6.07;;;2.63;;
81457;SDS011;70882;52.500;5.500;2023-07-16T12:18:01;8.60;;;2.78;;
81457;SDS011;70882;52.500;5.500;2023-07-16T12:20:27;5.82;;;2.50;;
81457;SDS011;70882;52.500;5.500;2023-07-16T12:22:52;7.75;;;3.05;;
81457;SDS011;70882;52.500;5.500;2023-07-16T12:25:18;8.15;;;2.75;;
81457;SDS011;70882;52.500;5.500;2023-07-16T12:27:43;8.27;;;2.83;;
81457;SDS011;70882;52.500;5.500;2023-07-16T12:32:34;6.10;;;2.72;;
81457;SDS011;70882;52.500;5.500;2023-07-16T12:34:59;5.35;;;2.30;;
81457;SDS011;70882;52.500;5.500;2023-07-16T12:37:25;3.78;;;2.20;;
81457;SDS011;70882;52.500;5.500;2023-07-16T12:39:51;7.90;;;2.63;;
81457;SDS011;70882;52.500;5.500;2023-07-16T12:42:16;8.38;;;3.00;;
81457;SDS011;70882;52.500;5.500;2023-07-16T12:44:41;7.68;;;2.53;;
81457;SDS011;70882;52.500;5.500;2023-07-16T12:47:07;6.28;;;2.30;;
81457;SDS011;70882;52.500;5.500;2023-07-16T12:49:33;6.55;;;2.58;;
81457;SDS011;70882;52.500;5.500;2023-07-16T12:51:59;6.85;;;2.70;;
81457;SDS011;70882;52.500;5.500;2023-07-16T12:54:24;5.38;;;2.28;;
81457;SDS011;70882;52.500;5.500;2023-07-16T12:56:49;4.68;;;2.47;;
81457;SDS011;70882;52.500;5.500;2023-07-16T12:59:15;8.65;;;2.38;;
81457;SDS011;70882;52.500;5.500;2023-07-16T13:01:40;5.45;;;2.00;;
81457;SDS011;70882;52.500;5.500;2023-07-16T13:04:06;6.35;;;1.95;;
81457;SDS011;70882;52.500;5.500;2023-07-16T13:06:31;4.63;;;1.80;;
81457;SDS011;70882;52.500;5.500;2023-07-16T13:08:56;5.80;;;2.10;;
81457;SDS011;70882;52.500;5.500;2023-07-16T13:11:22;6.97;;;2.50;;
81457;SDS011;70882;52.500;5.500;2023-07-16T13:13:47;7.78;;;1.50;;
81457;SDS011;70882;52.500;5.500;2023-07-16T13:16:12;7.47;;;1.80;;
81457;SDS011;70882;52.500;5.500;2023-07-16T13:18:38;5.13;;;2.08;;
81457;SDS011;70882;52.500;5.500;2023-07-16T13:21:04;5.15;;;1.50;;
81457;SDS011;70882;52.500;5.500;2023-07-16T13:23:29;8.20;;;2.60;;
81457;SDS011;70882;52.500;5.500;2023-07-16T13:25:55;6.40;;;2.70;;
81457;SDS011;70882;52.500;5.500;2023-07-16T13:28:21;7.25;;;1.70;;
81457;SDS011;70882;52.500;5.500;2023-07-16T13:30:48;8.30;;;1.77;;
81457;SDS011;70882;52.500;5.500;2023-07-16T13:33:13;5.93;;;1.70;;
81457;SDS011;70882;52.500;5.500;2023-07-16T13:35:39;6.25;;;2.08;;
81457;SDS011;70882;52.500;5.500;2023-07-16T13:38:04;6.13;;;1.80;;
81457;SDS011;70882;52.500;5.500;2023-07-16T13:40:30;5.38;;;1.85;;
81457;SDS011;70882;52.500;5.500;2023-07-16T13:42:55;3.22;;;1.42;;
81457;SDS011;70882;52.500;5.500;2023-07-16T13:45:23;6.03;;;1.45;;
81457;SDS011;70882;52.500;5.500;2023-07-16T13:47:49;7.35;;;1.58;;
81457;SDS011;70882;52.500;5.500;2023-07-16T13:50:17;5.57;;;1.73;;
81457;SDS011;70882;52.500;5.500;2023-07-16T13:52:44;5.68;;;1.52;;
81457;SDS011;70882;52.500;5.500;2023-07-16T13:55:09;8.50;;;1.92;;
81457;SDS011;70882;52.500;5.500;2023-07-16T13:57:35;6.93;;;1.83;;
81457;SDS011;70882;52.500;5.500;2023-07-16T14:00:00;9.05;;;1.80;;
81457;SDS011;70882;52.500;5.500;2023-07-16T14:02:25;8.02;;;1.65;;
81457;SDS011;70882;52.500;5.500;2023-07-16T14:04:51;9.13;;;1.50;;
81457;SDS011;70882;52.500;5.500;2023-07-16T14:07:16;8.52;;;2.20;;
81457;SDS011;70882;52.500;5.500;2023-07-16T14:09:42;9.10;;;2.03;;
81457;SDS011;70882;52.500;5.500;2023-07-16T14:12:07;9.20;;;1.50;;
81457;SDS011;70882;52.500;5.500;2023-07-16T14:14:33;8.10;;;1.55;;
81457;SDS011;70882;52.500;5.500;2023-07-16T14:16:58;6.93;;;1.50;;
81457;SDS011;70882;52.500;5.500;2023-07-16T14:19:23;7.13;;;1.80;;
81457;SDS011;70882;52.500;5.500;2023-07-16T14:21:49;4.90;;;1.30;;
81457;SDS011;70882;52.500;5.500;2023-07-16T14:24:14;8.90;;;1.85;;
81457;SDS011;70882;52.500;5.500;2023-07-16T14:26:40;6.60;;;1.67;;
81457;SDS011;70882;52.500;5.500;2023-07-16T14:29:05;5.70;;;1.40;;
81457;SDS011;70882;52.500;5.500;2023-07-16T14:31:31;6.22;;;1.77;;
81457;SDS011;70882;52.500;5.500;2023-07-16T14:33:56;4.55;;;1.23;;
81457;SDS011;70882;52.500;5.500;2023-07-16T14:36:22;6.40;;;1.45;;
81457;SDS011;70882;52.500;5.500;2023-07-16T14:38:48;6.38;;;1.65;;
81457;SDS011;70882;52.500;5.500;2023-07-16T14:41:13;7.22;;;1.65;;
81457;SDS011;70882;52.500;5.500;2023-07-16T14:43:39;7.38;;;1.50;;
81457;SDS011;70882;52.500;5.500;2023-07-16T14:46:04;7.72;;;1.50;;
81457;SDS011;70882;52.500;5.500;2023-07-16T14:48:29;9.57;;;1.98;;
81457;SDS011;70882;52.500;5.500;2023-07-16T14:50:55;6.78;;;1.20;;
81457;SDS011;70882;52.500;5.500;2023-07-16T14:53:20;7.75;;;1.55;;